sensor_id;sensor_type;location;lat;lon;timestamp;temperature;humidity
66506;HTU21D;53332;51.082;5.832;2024-01-30T00:01:55;8.62;118.99
66506;HTU21D;53332;51.082;5.832;2024-01-30T00:04:20;8.56;118.99
66506;HTU21D;53332;51.082;5.832;2024-01-30T00:06:46;8.50;118.99
66506;HTU21D;53332;51.082;5.832;2024-01-30T00:09:11;8.49;118.99
66506;HTU21D;53332;51.082;5.832;2024-01-30T00:11:37;8.47;118.99
66506;HTU21D;53332;51.082;5.832;2024-01-30T00:14:04;8.47;118.99
66506;HTU21D;53332;51.082;5.832;2024-01-30T00:16:30;8.45;118.99
66506;HTU21D;53332;51.082;5.832;2024-01-30T00:18:56;8.44;118.99
66506;HTU21D;53332;51.082;5.832;2024-01-30T00:21:22;8.42;118.99
66506;HTU21D;53332;51.082;5.832;2024-01-30T00:23:48;8.41;118.99
66506;HTU21D;53332;51.082;5.832;2024-01-30T00:26:14;8.38;118.99
66506;HTU21D;53332;51.082;5.832;2024-01-30T00:28:42;8.39;118.99
66506;HTU21D;53332;51.082;5.832;2024-01-30T00:31:08;8.33;118.99
66506;HTU21D;53332;51.082;5.832;2024-01-30T00:33:38;8.27;118.99
66506;HTU21D;53332;51.082;5.832;2024-01-30T00:36:05;8.22;118.99
66506;HTU21D;53332;51.082;5.832;2024-01-30T00:38:31;8.16;118.99
66506;HTU21D;53332;51.082;5.832;2024-01-30T00:40:57;8.15;118.99
66506;HTU21D;53332;51.082;5.832;2024-01-30T00:43:22;8.15;118.99
66506;HTU21D;53332;51.082;5.832;2024-01-30T00:45:50;8.18;118.99
66506;HTU21D;53332;51.082;5.832;2024-01-30T00:48:17;8.19;118.99
66506;HTU21D;53332;51.082;5.832;2024-01-30T00:50:43;8.23;118.99
66506;HTU21D;53332;51.082;5.832;2024-01-30T00:53:08;8.27;118.99
66506;HTU21D;53332;51.082;5.832;2024-01-30T00:55:34;8.32;118.99
66506;HTU21D;53332;51.082;5.832;2024-01-30T00:58:01;8.39;118.99
66506;HTU21D;53332;51.082;5.832;2024-01-30T01:00:26;8.45;118.99
66506;HTU21D;53332;51.082;5.832;2024-01-30T01:02:55;8.52;118.99
66506;HTU21D;53332;51.082;5.832;2024-01-30T01:05:21;8.56;118.99
66506;HTU21D;53332;51.082;5.832;2024-01-30T01:07:46;8.62;118.99
66506;HTU21D;53332;51.082;5.832;2024-01-30T01:10:16;8.68;118.99
66506;HTU21D;53332;51.082;5.832;2024-01-30T01:12:43;8.73;118.99
66506;HTU21D;53332;51.082;5.832;2024-01-30T01:15:09;8.76;118.99
66506;HTU21D;53332;51.082;5.832;2024-01-30T01:17:38;8.81;118.99
66506;HTU21D;53332;51.082;5.832;2024-01-30T01:20:05;8.85;118.99
66506;HTU21D;53332;51.082;5.832;2024-01-30T01:22:32;8.89;118.99
66506;HTU21D;53332;51.082;5.832;2024-01-30T01:24:58;8.91;118.99
66506;HTU21D;53332;51.082;5.832;2024-01-30T01:27:24;8.94;118.99
66506;HTU21D;53332;51.082;5.832;2024-01-30T01:29:51;8.98;118.99
66506;HTU21D;53332;51.082;5.832;2024-01-30T01:32:16;9.00;118.99
66506;HTU21D;53332;51.082;5.832;2024-01-30T01:34:42;9.02;118.99
66506;HTU21D;53332;51.082;5.832;2024-01-30T01:37:08;9.04;118.99
66506;HTU21D;53332;51.082;5.832;2024-01-30T01:39:33;9.07;118.99
66506;HTU21D;53332;51.082;5.832;2024-01-30T01:41:59;9.06;118.99
66506;HTU21D;53332;51.082;5.832;2024-01-30T01:44:24;9.06;118.99
66506;HTU21D;53332;51.082;5.832;2024-01-30T01:46:51;9.06;118.99
66506;HTU21D;53332;51.082;5.832;2024-01-30T01:49:18;9.06;118.99
66506;HTU21D;53332;51.082;5.832;2024-01-30T01:51:47;9.06;118.99
66506;HTU21D;53332;51.082;5.832;2024-01-30T01:54:14;9.08;118.99
66506;HTU21D;53332;51.082;5.832;2024-01-30T01:56:42;9.10;118.99
66506;HTU21D;53332;51.082;5.832;2024-01-30T01:59:09;9.11;118.99
66506;HTU21D;53332;51.082;5.832;2024-01-30T02:01:36;9.08;118.99
66506;HTU21D;53332;51.082;5.832;2024-01-30T02:04:02;9.05;118.99
66506;HTU21D;53332;51.082;5.832;2024-01-30T02:06:28;9.06;118.99
66506;HTU21D;53332;51.082;5.832;2024-01-30T02:08:54;9.09;118.99
66506;HTU21D;53332;51.082;5.832;2024-01-30T02:11:22;9.17;118.99
66506;HTU21D;53332;51.082;5.832;2024-01-30T02:13:49;9.19;118.99
66506;HTU21D;53332;51.082;5.832;2024-01-30T02:16:15;9.20;118.99
66506;HTU21D;53332;51.082;5.832;2024-01-30T02:18:42;9.24;118.99
66506;HTU21D;53332;51.082;5.832;2024-01-30T02:21:11;9.27;118.99
66506;HTU21D;53332;51.082;5.832;2024-01-30T02:23:36;9.32;118.99
66506;HTU21D;53332;51.082;5.832;2024-01-30T02:26:03;9.38;118.99
66506;HTU21D;53332;51.082;5.832;2024-01-30T02:28:28;9.40;118.99
66506;HTU21D;53332;51.082;5.832;2024-01-30T02:30:54;9.39;118.99
66506;HTU21D;53332;51.082;5.832;2024-01-30T02:33:19;9.46;118.99
66506;HTU21D;53332;51.082;5.832;2024-01-30T02:35:47;9.51;118.99
66506;HTU21D;53332;51.082;5.832;2024-01-30T02:38:14;9.57;118.99
66506;HTU21D;53332;51.082;5.832;2024-01-30T02:40:40;9.61;118.99
66506;HTU21D;53332;51.082;5.832;2024-01-30T02:43:06;9.64;118.99
66506;HTU21D;53332;51.082;5.832;2024-01-30T02:45:31;9.67;118.99
66506;HTU21D;53332;51.082;5.832;2024-01-30T02:47:57;9.67;118.99
66506;HTU21D;53332;51.082;5.832;2024-01-30T02:50:22;9.71;118.99
66506;HTU21D;53332;51.082;5.832;2024-01-30T02:52:48;9.74;118.99
66506;HTU21D;53332;51.082;5.832;2024-01-30T02:55:13;9.75;118.99
66506;HTU21D;53332;51.082;5.832;2024-01-30T02:57:39;9.76;118.99
66506;HTU21D;53332;51.082;5.832;2024-01-30T03:00:05;9.82;118.99
66506;HTU21D;53332;51.082;5.832;2024-01-30T03:02:34;9.85;118.99
66506;HTU21D;53332;51.082;5.832;2024-01-30T03:05:00;9.85;118.99
66506;HTU21D;53332;51.082;5.832;2024-01-30T03:07:26;9.83;118.99
66506;HTU21D;53332;51.082;5.832;2024-01-30T03:09:51;9.86;118.99
66506;HTU21D;53332;51.082;5.832;2024-01-30T03:12:17;9.88;118.99
66506;HTU21D;53332;51.082;5.832;2024-01-30T03:14:42;9.85;118.99
66506;HTU21D;53332;51.082;5.832;2024-01-30T03:17:08;9.85;118.99
66506;HTU21D;53332;51.082;5.832;2024-01-30T03:19:33;9.84;118.99
66506;HTU21D;53332;51.082;5.832;2024-01-30T03:21:59;9.83;118.99
66506;HTU21D;53332;51.082;5.832;2024-01-30T03:24:25;9.86;118.99
66506;HTU21D;53332;51.082;5.832;2024-01-30T03:26:50;9.86;118.99
66506;HTU21D;53332;51.082;5.832;2024-01-30T03:29:16;9.85;118.99
66506;HTU21D;53332;51.082;5.832;2024-01-30T03:31:42;9.86;118.99
66506;HTU21D;53332;51.082;5.832;2024-01-30T03:34:07;9.85;118.99
66506;HTU21D;53332;51.082;5.832;2024-01-30T03:36:33;9.85;118.99
66506;HTU21D;53332;51.082;5.832;2024-01-30T03:39:00;9.86;118.99
66506;HTU21D;53332;51.082;5.832;2024-01-30T03:41:26;9.84;118.99
66506;HTU21D;53332;51.082;5.832;2024-01-30T03:43:51;9.88;118.99
66506;HTU21D;53332;51.082;5.832;2024-01-30T03:46:17;9.90;118.99
66506;HTU21D;53332;51.082;5.832;2024-01-30T03:48:45;9.91;118.99
66506;HTU21D;53332;51.082;5.832;2024-01-30T03:51:11;9.92;118.99
66506;HTU21D;53332;51.082;5.832;2024-01-30T03:53:43;9.92;118.99
66506;HTU21D;53332;51.082;5.832;2024-01-30T03:56:10;9.95;118.99
66506;HTU21D;53332;51.082;5.832;2024-01-30T03:58:36;9.97;118.99
66506;HTU21D;53332;51.082;5.832;2024-01-30T04:01:01;9.93;118.99
66506;HTU21D;53332;51.082;5.832;2024-01-30T04:03:27;9.92;118.99
66506;HTU21D;53332;51.082;5.832;2024-01-30T04:05:53;9.96;118.99
66506;HTU21D;53332;51.082;5.832;2024-01-30T04:08:18;9.96;118.99
66506;HTU21D;53332;51.082;5.832;2024-01-30T04:10:44;9.93;118.99
66506;HTU21D;53332;51.082;5.832;2024-01-30T04:13:10;9.88;118.99
66506;HTU21D;53332;51.082;5.832;2024-01-30T04:15:35;9.86;118.99
66506;HTU21D;53332;51.082;5.832;2024-01-30T04:18:01;9.85;118.99
66506;HTU21D;53332;51.082;5.832;2024-01-30T04:20:27;9.86;118.99
66506;HTU21D;53332;51.082;5.832;2024-01-30T04:22:52;9.88;118.99
66506;HTU21D;53332;51.082;5.832;2024-01-30T04:25:18;9.88;118.99
66506;HTU21D;53332;51.082;5.832;2024-01-30T04:27:44;9.91;118.99
66506;HTU21D;53332;51.082;5.832;2024-01-30T04:30:10;9.90;118.99
66506;HTU21D;53332;51.082;5.832;2024-01-30T04:32:36;9.91;118.99
66506;HTU21D;53332;51.082;5.832;2024-01-30T04:35:02;9.94;118.99
66506;HTU21D;53332;51.082;5.832;2024-01-30T04:37:28;9.96;118.99
66506;HTU21D;53332;51.082;5.832;2024-01-30T04:39:53;9.95;118.99
66506;HTU21D;53332;51.082;5.832;2024-01-30T04:42:19;9.98;118.99
66506;HTU21D;53332;51.082;5.832;2024-01-30T04:44:44;9.98;118.99
66506;HTU21D;53332;51.082;5.832;2024-01-30T04:47:10;10.00;118.99
66506;HTU21D;53332;51.082;5.832;2024-01-30T04:49:40;10.05;118.99
66506;HTU21D;53332;51.082;5.832;2024-01-30T04:52:06;10.04;118.99
66506;HTU21D;53332;51.082;5.832;2024-01-30T04:54:32;10.08;118.99
66506;HTU21D;53332;51.082;5.832;2024-01-30T04:56:58;10.09;118.99
66506;HTU21D;53332;51.082;5.832;2024-01-30T04:59:24;10.11;118.99
66506;HTU21D;53332;51.082;5.832;2024-01-30T05:01:49;10.12;118.99
66506;HTU21D;53332;51.082;5.832;2024-01-30T05:04:15;10.15;118.99
66506;HTU21D;53332;51.082;5.832;2024-01-30T05:06:41;10.18;118.99
66506;HTU21D;53332;51.082;5.832;2024-01-30T05:09:06;10.19;118.99
66506;HTU21D;53332;51.082;5.832;2024-01-30T05:11:37;10.16;118.99
66506;HTU21D;53332;51.082;5.832;2024-01-30T05:14:03;10.21;118.99
66506;HTU21D;53332;51.082;5.832;2024-01-30T05:16:29;10.22;118.99
66506;HTU21D;53332;51.082;5.832;2024-01-30T05:18:54;10.26;118.99
66506;HTU21D;53332;51.082;5.832;2024-01-30T05:21:20;10.24;118.99
66506;HTU21D;53332;51.082;5.832;2024-01-30T05:23:45;10.28;118.99
66506;HTU21D;53332;51.082;5.832;2024-01-30T05:26:11;10.33;118.99
66506;HTU21D;53332;51.082;5.832;2024-01-30T05:28:37;10.36;118.99
66506;HTU21D;53332;51.082;5.832;2024-01-30T05:31:03;10.36;118.99
66506;HTU21D;53332;51.082;5.832;2024-01-30T05:33:28;10.37;118.99
66506;HTU21D;53332;51.082;5.832;2024-01-30T05:35:54;10.36;118.99
66506;HTU21D;53332;51.082;5.832;2024-01-30T05:38:20;10.39;118.99
66506;HTU21D;53332;51.082;5.832;2024-01-30T05:40:45;10.39;118.99
66506;HTU21D;53332;51.082;5.832;2024-01-30T05:43:11;10.40;118.99
66506;HTU21D;53332;51.082;5.832;2024-01-30T05:45:37;10.44;118.99
66506;HTU21D;53332;51.082;5.832;2024-01-30T05:48:03;10.49;118.99
66506;HTU21D;53332;51.082;5.832;2024-01-30T05:50:28;10.45;118.99
66506;HTU21D;53332;51.082;5.832;2024-01-30T05:52:54;10.46;118.99
66506;HTU21D;53332;51.082;5.832;2024-01-30T05:55:20;10.51;118.99
66506;HTU21D;53332;51.082;5.832;2024-01-30T05:57:45;10.50;118.99
66506;HTU21D;53332;51.082;5.832;2024-01-30T06:00:11;10.52;118.99
66506;HTU21D;53332;51.082;5.832;2024-01-30T06:02:36;10.60;118.99
66506;HTU21D;53332;51.082;5.832;2024-01-30T06:05:02;10.65;118.99
66506;HTU21D;53332;51.082;5.832;2024-01-30T06:07:28;10.67;118.99
66506;HTU21D;53332;51.082;5.832;2024-01-30T06:09:53;10.67;118.99
66506;HTU21D;53332;51.082;5.832;2024-01-30T06:12:19;10.69;118.99
66506;HTU21D;53332;51.082;5.832;2024-01-30T06:14:44;10.68;118.99
66506;HTU21D;53332;51.082;5.832;2024-01-30T06:17:10;10.68;118.99
66506;HTU21D;53332;51.082;5.832;2024-01-30T06:19:37;10.69;118.99
66506;HTU21D;53332;51.082;5.832;2024-01-30T06:22:04;10.72;118.99
66506;HTU21D;53332;51.082;5.832;2024-01-30T06:24:29;10.74;118.99
66506;HTU21D;53332;51.082;5.832;2024-01-30T06:26:55;10.71;118.99
66506;HTU21D;53332;51.082;5.832;2024-01-30T06:29:20;10.75;118.99
66506;HTU21D;53332;51.082;5.832;2024-01-30T06:31:46;10.77;118.99
66506;HTU21D;53332;51.082;5.832;2024-01-30T06:34:11;10.78;118.99
66506;HTU21D;53332;51.082;5.832;2024-01-30T06:36:38;10.80;118.99
66506;HTU21D;53332;51.082;5.832;2024-01-30T06:39:04;10.85;118.99
66506;HTU21D;53332;51.082;5.832;2024-01-30T06:41:29;10.88;118.99
66506;HTU21D;53332;51.082;5.832;2024-01-30T06:43:56;10.90;118.99
66506;HTU21D;53332;51.082;5.832;2024-01-30T06:46:22;10.90;118.99
66506;HTU21D;53332;51.082;5.832;2024-01-30T06:48:47;10.95;118.99
66506;HTU21D;53332;51.082;5.832;2024-01-30T06:51:13;10.92;118.99
66506;HTU21D;53332;51.082;5.832;2024-01-30T06:53:38;10.88;118.99
66506;HTU21D;53332;51.082;5.832;2024-01-30T06:56:04;10.87;118.99
66506;HTU21D;53332;51.082;5.832;2024-01-30T06:58:30;10.88;118.99
66506;HTU21D;53332;51.082;5.832;2024-01-30T07:00:56;10.87;118.99
66506;HTU21D;53332;51.082;5.832;2024-01-30T07:03:22;10.89;118.99
66506;HTU21D;53332;51.082;5.832;2024-01-30T07:05:47;10.89;118.99
66506;HTU21D;53332;51.082;5.832;2024-01-30T07:08:13;10.90;118.99
66506;HTU21D;53332;51.082;5.832;2024-01-30T07:10:40;10.89;118.99
66506;HTU21D;53332;51.082;5.832;2024-01-30T07:13:05;10.88;118.99
66506;HTU21D;53332;51.082;5.832;2024-01-30T07:15:31;10.92;118.99
66506;HTU21D;53332;51.082;5.832;2024-01-30T07:17:57;10.95;118.99
66506;HTU21D;53332;51.082;5.832;2024-01-30T07:20:22;10.96;118.99
66506;HTU21D;53332;51.082;5.832;2024-01-30T07:22:49;10.97;118.99
66506;HTU21D;53332;51.082;5.832;2024-01-30T07:25:14;11.01;118.99
66506;HTU21D;53332;51.082;5.832;2024-01-30T07:27:41;11.04;118.99
66506;HTU21D;53332;51.082;5.832;2024-01-30T07:30:07;11.07;118.99
66506;HTU21D;53332;51.082;5.832;2024-01-30T07:32:32;11.05;118.99
66506;HTU21D;53332;51.082;5.832;2024-01-30T07:34:58;11.07;118.99
66506;HTU21D;53332;51.082;5.832;2024-01-30T07:37:23;11.10;118.99
66506;HTU21D;53332;51.082;5.832;2024-01-30T07:39:49;11.08;118.99
66506;HTU21D;53332;51.082;5.832;2024-01-30T07:42:15;11.11;118.99
66506;HTU21D;53332;51.082;5.832;2024-01-30T07:44:41;11.08;118.99
66506;HTU21D;53332;51.082;5.832;2024-01-30T07:47:06;11.08;118.99
66506;HTU21D;53332;51.082;5.832;2024-01-30T07:49:33;11.08;118.99
66506;HTU21D;53332;51.082;5.832;2024-01-30T07:51:58;11.11;118.99
66506;HTU21D;53332;51.082;5.832;2024-01-30T07:54:24;11.13;118.99
66506;HTU21D;53332;51.082;5.832;2024-01-30T07:56:49;11.11;118.99
66506;HTU21D;53332;51.082;5.832;2024-01-30T07:59:15;11.12;118.99
66506;HTU21D;53332;51.082;5.832;2024-01-30T08:01:41;11.11;118.99
66506;HTU21D;53332;51.082;5.832;2024-01-30T08:04:06;11.08;118.99
66506;HTU21D;53332;51.082;5.832;2024-01-30T08:06:32;11.04;118.99
66506;HTU21D;53332;51.082;5.832;2024-01-30T08:08:58;11.02;118.99
66506;HTU21D;53332;51.082;5.832;2024-01-30T08:11:24;11.00;118.99
66506;HTU21D;53332;51.082;5.832;2024-01-30T08:13:55;10.99;118.99
66506;HTU21D;53332;51.082;5.832;2024-01-30T08:16:21;10.96;118.99
66506;HTU21D;53332;51.082;5.832;2024-01-30T08:18:46;10.94;118.99
66506;HTU21D;53332;51.082;5.832;2024-01-30T08:21:12;10.94;118.99
66506;HTU21D;53332;51.082;5.832;2024-01-30T08:23:39;10.95;118.99
66506;HTU21D;53332;51.082;5.832;2024-01-30T08:26:05;10.96;118.99
66506;HTU21D;53332;51.082;5.832;2024-01-30T08:28:31;10.95;118.99
66506;HTU21D;53332;51.082;5.832;2024-01-30T08:30:56;10.94;118.99
66506;HTU21D;53332;51.082;5.832;2024-01-30T08:33:22;10.94;118.99
66506;HTU21D;53332;51.082;5.832;2024-01-30T08:35:48;10.95;118.99
66506;HTU21D;53332;51.082;5.832;2024-01-30T08:38:13;10.97;118.99
66506;HTU21D;53332;51.082;5.832;2024-01-30T08:40:39;11.01;118.99
66506;HTU21D;53332;51.082;5.832;2024-01-30T08:43:04;11.04;118.99
66506;HTU21D;53332;51.082;5.832;2024-01-30T08:45:30;11.10;118.99
66506;HTU21D;53332;51.082;5.832;2024-01-30T08:47:56;11.16;118.99
66506;HTU21D;53332;51.082;5.832;2024-01-30T08:50:22;11.22;118.99
66506;HTU21D;53332;51.082;5.832;2024-01-30T08:52:47;11.26;118.99
66506;HTU21D;53332;51.082;5.832;2024-01-30T08:55:13;11.30;118.99
66506;HTU21D;53332;51.082;5.832;2024-01-30T08:57:38;11.30;118.99
66506;HTU21D;53332;51.082;5.832;2024-01-30T09:00:05;11.31;118.99
66506;HTU21D;53332;51.082;5.832;2024-01-30T09:02:32;11.36;118.99
66506;HTU21D;53332;51.082;5.832;2024-01-30T09:04:58;11.40;118.99
66506;HTU21D;53332;51.082;5.832;2024-01-30T09:07:24;11.40;118.99
66506;HTU21D;53332;51.082;5.832;2024-01-30T09:09:49;11.44;118.99
66506;HTU21D;53332;51.082;5.832;2024-01-30T09:12:15;11.45;118.99
66506;HTU21D;53332;51.082;5.832;2024-01-30T09:14:40;11.46;118.99
66506;HTU21D;53332;51.082;5.832;2024-01-30T09:17:07;11.46;118.99
66506;HTU21D;53332;51.082;5.832;2024-01-30T09:19:32;11.46;118.99
66506;HTU21D;53332;51.082;5.832;2024-01-30T09:21:58;11.49;118.99
66506;HTU21D;53332;51.082;5.832;2024-01-30T09:24:24;11.49;118.99
66506;HTU21D;53332;51.082;5.832;2024-01-30T09:26:49;11.51;118.99
66506;HTU21D;53332;51.082;5.832;2024-01-30T09:29:15;11.49;118.99
66506;HTU21D;53332;51.082;5.832;2024-01-30T09:31:45;11.54;118.99
66506;HTU21D;53332;51.082;5.832;2024-01-30T09:34:11;11.55;118.99
66506;HTU21D;53332;51.082;5.832;2024-01-30T09:36:37;11.55;118.99
66506;HTU21D;53332;51.082;5.832;2024-01-30T09:39:02;11.55;118.99
66506;HTU21D;53332;51.082;5.832;2024-01-30T09:41:32;11.60;118.99
66506;HTU21D;53332;51.082;5.832;2024-01-30T09:43:59;11.63;118.99
66506;HTU21D;53332;51.082;5.832;2024-01-30T09:46:27;11.64;118.99
66506;HTU21D;53332;51.082;5.832;2024-01-30T09:48:53;11.67;118.99
66506;HTU21D;53332;51.082;5.832;2024-01-30T09:51:21;11.69;118.99
66506;HTU21D;53332;51.082;5.832;2024-01-30T09:53:47;11.70;118.99
66506;HTU21D;53332;51.082;5.832;2024-01-30T09:56:14;11.71;118.99
66506;HTU21D;53332;51.082;5.832;2024-01-30T09:58:39;11.73;118.99
66506;HTU21D;53332;51.082;5.832;2024-01-30T10:01:05;11.74;118.99
66506;HTU21D;53332;51.082;5.832;2024-01-30T10:03:31;11.77;118.99
66506;HTU21D;53332;51.082;5.832;2024-01-30T10:05:56;11.83;118.99
66506;HTU21D;53332;51.082;5.832;2024-01-30T10:08:22;11.84;118.99
66506;HTU21D;53332;51.082;5.832;2024-01-30T10:10:49;11.90;118.99
66506;HTU21D;53332;51.082;5.832;2024-01-30T10:13:16;11.92;118.99
66506;HTU21D;53332;51.082;5.832;2024-01-30T10:15:42;11.98;118.99
66506;HTU21D;53332;51.082;5.832;2024-01-30T10:18:11;12.01;118.99
66506;HTU21D;53332;51.082;5.832;2024-01-30T10:20:37;12.04;118.99
66506;HTU21D;53332;51.082;5.832;2024-01-30T10:23:03;12.07;118.99
66506;HTU21D;53332;51.082;5.832;2024-01-30T10:25:33;12.13;118.99
66506;HTU21D;53332;51.082;5.832;2024-01-30T10:27:58;12.16;118.99
66506;HTU21D;53332;51.082;5.832;2024-01-30T10:30:24;12.19;118.99
66506;HTU21D;53332;51.082;5.832;2024-01-30T10:32:50;12.20;118.99
66506;HTU21D;53332;51.082;5.832;2024-01-30T10:35:17;12.25;118.99
66506;HTU21D;53332;51.082;5.832;2024-01-30T10:37:47;12.29;118.99
66506;HTU21D;53332;51.082;5.832;2024-01-30T10:40:14;12.30;118.99
66506;HTU21D;53332;51.082;5.832;2024-01-30T10:42:44;12.32;118.99
66506;HTU21D;53332;51.082;5.832;2024-01-30T10:45:14;12.34;118.99
66506;HTU21D;53332;51.082;5.832;2024-01-30T10:47:48;12.37;118.99
66506;HTU21D;53332;51.082;5.832;2024-01-30T10:50:14;12.44;118.99
66506;HTU21D;53332;51.082;5.832;2024-01-30T10:52:41;12.40;118.99
66506;HTU21D;53332;51.082;5.832;2024-01-30T10:55:08;12.41;118.99
66506;HTU21D;53332;51.082;5.832;2024-01-30T10:57:34;12.43;118.99
66506;HTU21D;53332;51.082;5.832;2024-01-30T11:00:14;12.47;118.99
66506;HTU21D;53332;51.082;5.832;2024-01-30T11:02:45;12.48;118.99
66506;HTU21D;53332;51.082;5.832;2024-01-30T11:05:12;12.49;118.99
66506;HTU21D;53332;51.082;5.832;2024-01-30T11:07:39;12.47;118.99
66506;HTU21D;53332;51.082;5.832;2024-01-30T11:10:08;12.48;118.99
66506;HTU21D;53332;51.082;5.832;2024-01-30T11:12:39;12.51;118.99
66506;HTU21D;53332;51.082;5.832;2024-01-30T11:15:12;12.52;118.99
66506;HTU21D;53332;51.082;5.832;2024-01-30T11:17:45;12.55;118.99
66506;HTU21D;53332;51.082;5.832;2024-01-30T11:20:22;12.55;118.99
66506;HTU21D;53332;51.082;5.832;2024-01-30T11:22:56;12.60;118.99
66506;HTU21D;53332;51.082;5.832;2024-01-30T11:25:23;12.62;118.99
66506;HTU21D;53332;51.082;5.832;2024-01-30T11:27:53;12.65;118.99
66506;HTU21D;53332;51.082;5.832;2024-01-30T11:30:25;12.65;118.99
66506;HTU21D;53332;51.082;5.832;2024-01-30T11:33:05;12.66;118.99
66506;HTU21D;53332;51.082;5.832;2024-01-30T11:35:42;12.73;118.99
66506;HTU21D;53332;51.082;5.832;2024-01-30T11:38:09;12.76;118.99
66506;HTU21D;53332;51.082;5.832;2024-01-30T11:40:36;12.73;118.99
66506;HTU21D;53332;51.082;5.832;2024-01-30T11:43:03;12.70;118.99
66506;HTU21D;53332;51.082;5.832;2024-01-30T11:45:31;12.71;118.99
66506;HTU21D;53332;51.082;5.832;2024-01-30T11:47:57;12.72;118.99
66506;HTU21D;53332;51.082;5.832;2024-01-30T11:50:25;12.76;118.99
66506;HTU21D;53332;51.082;5.832;2024-01-30T11:52:51;12.74;118.99
66506;HTU21D;53332;51.082;5.832;2024-01-30T11:55:17;12.73;118.99
66506;HTU21D;53332;51.082;5.832;2024-01-30T11:57:44;12.72;118.99
66506;HTU21D;53332;51.082;5.832;2024-01-30T12:00:19;12.74;118.99
66506;HTU21D;53332;51.082;5.832;2024-01-30T12:02:51;12.69;118.99
66506;HTU21D;53332;51.082;5.832;2024-01-30T12:05:19;12.71;118.99
66506;HTU21D;53332;51.082;5.832;2024-01-30T12:07:46;12.73;118.99
66506;HTU21D;53332;51.082;5.832;2024-01-30T12:10:13;12.73;118.99
66506;HTU21D;53332;51.082;5.832;2024-01-30T12:12:42;12.76;118.99
66506;HTU21D;53332;51.082;5.832;2024-01-30T12:15:08;12.73;118.99
66506;HTU21D;53332;51.082;5.832;2024-01-30T12:17:34;12.61;118.99
66506;HTU21D;53332;51.082;5.832;2024-01-30T12:22:38;12.55;118.99
66506;HTU21D;53332;51.082;5.832;2024-01-30T12:25:15;12.49;118.99
66506;HTU21D;53332;51.082;5.832;2024-01-30T12:27:45;12.53;118.99
66506;HTU21D;53332;51.082;5.832;2024-01-30T12:30:13;12.55;118.99
66506;HTU21D;53332;51.082;5.832;2024-01-30T12:32:41;12.52;118.99
66506;HTU21D;53332;51.082;5.832;2024-01-30T12:35:10;12.51;118.99
66506;HTU21D;53332;51.082;5.832;2024-01-30T12:37:36;12.50;118.99
66506;HTU21D;53332;51.082;5.832;2024-01-30T12:40:02;12.51;118.99
66506;HTU21D;53332;51.082;5.832;2024-01-30T12:42:27;12.50;118.99
66506;HTU21D;53332;51.082;5.832;2024-01-30T12:44:53;12.50;118.99
66506;HTU21D;53332;51.082;5.832;2024-01-30T12:47:21;12.52;118.99
66506;HTU21D;53332;51.082;5.832;2024-01-30T12:49:47;12.52;118.99
66506;HTU21D;53332;51.082;5.832;2024-01-30T12:52:16;12.50;118.99
66506;HTU21D;53332;51.082;5.832;2024-01-30T12:54:41;12.44;118.99
66506;HTU21D;53332;51.082;5.832;2024-01-30T12:57:07;12.41;118.99
66506;HTU21D;53332;51.082;5.832;2024-01-30T12:59:33;12.41;118.99
66506;HTU21D;53332;51.082;5.832;2024-01-30T13:02:00;12.41;118.99
66506;HTU21D;53332;51.082;5.832;2024-01-30T13:04:27;12.45;118.99
66506;HTU21D;53332;51.082;5.832;2024-01-30T13:06:53;12.46;118.99
66506;HTU21D;53332;51.082;5.832;2024-01-30T13:09:19;12.48;118.99
66506;HTU21D;53332;51.082;5.832;2024-01-30T13:11:45;12.49;118.99
66506;HTU21D;53332;51.082;5.832;2024-01-30T13:14:11;12.48;118.99
66506;HTU21D;53332;51.082;5.832;2024-01-30T13:16:37;12.46;118.99
66506;HTU21D;53332;51.082;5.832;2024-01-30T13:19:02;12.49;118.99
66506;HTU21D;53332;51.082;5.832;2024-01-30T13:21:28;12.43;118.99
66506;HTU21D;53332;51.082;5.832;2024-01-30T13:23:54;12.36;118.99
66506;HTU21D;53332;51.082;5.832;2024-01-30T13:26:23;12.25;118.99
66506;HTU21D;53332;51.082;5.832;2024-01-30T13:28:48;12.22;118.99
66506;HTU21D;53332;51.082;5.832;2024-01-30T13:31:14;12.17;118.99
66506;HTU21D;53332;51.082;5.832;2024-01-30T13:33:40;12.05;118.99
66506;HTU21D;53332;51.082;5.832;2024-01-30T13:36:07;12.05;118.99
66506;HTU21D;53332;51.082;5.832;2024-01-30T13:38:32;12.12;118.99
66506;HTU21D;53332;51.082;5.832;2024-01-30T13:40:59;12.12;118.99
66506;HTU21D;53332;51.082;5.832;2024-01-30T13:43:25;12.12;118.99
66506;HTU21D;53332;51.082;5.832;2024-01-30T13:45:51;12.05;118.99
66506;HTU21D;53332;51.082;5.832;2024-01-30T13:48:16;12.05;118.99
66506;HTU21D;53332;51.082;5.832;2024-01-30T13:50:42;12.07;118.99
66506;HTU21D;53332;51.082;5.832;2024-01-30T13:53:08;12.08;118.99
66506;HTU21D;53332;51.082;5.832;2024-01-30T13:55:34;12.14;118.99
66506;HTU21D;53332;51.082;5.832;2024-01-30T13:58:00;12.11;118.99
66506;HTU21D;53332;51.082;5.832;2024-01-30T14:00:27;12.11;118.99
66506;HTU21D;53332;51.082;5.832;2024-01-30T14:02:52;12.18;118.99
66506;HTU21D;53332;51.082;5.832;2024-01-30T14:05:20;12.21;118.99
66506;HTU21D;53332;51.082;5.832;2024-01-30T14:07:47;12.15;118.99
66506;HTU21D;53332;51.082;5.832;2024-01-30T14:10:12;12.12;118.99
66506;HTU21D;53332;51.082;5.832;2024-01-30T14:12:38;12.10;118.99
66506;HTU21D;53332;51.082;5.832;2024-01-30T14:15:04;12.05;118.99
66506;HTU21D;53332;51.082;5.832;2024-01-30T14:17:30;12.00;118.99
66506;HTU21D;53332;51.082;5.832;2024-01-30T14:19:55;11.96;118.99
66506;HTU21D;53332;51.082;5.832;2024-01-30T14:22:21;11.94;118.99
66506;HTU21D;53332;51.082;5.832;2024-01-30T14:24:46;11.87;118.99
66506;HTU21D;53332;51.082;5.832;2024-01-30T14:27:12;11.87;118.99
66506;HTU21D;53332;51.082;5.832;2024-01-30T14:29:37;11.89;118.99
66506;HTU21D;53332;51.082;5.832;2024-01-30T14:32:03;11.85;118.13
66506;HTU21D;53332;51.082;5.832;2024-01-30T14:34:31;11.85;115.06
66506;HTU21D;53332;51.082;5.832;2024-01-30T14:36:56;11.78;111.37
66506;HTU21D;53332;51.082;5.832;2024-01-30T14:39:22;11.78;113.73
66506;HTU21D;53332;51.082;5.832;2024-01-30T14:41:47;11.79;114.24
66506;HTU21D;53332;51.082;5.832;2024-01-30T14:44:13;11.72;108.03
66506;HTU21D;53332;51.082;5.832;2024-01-30T14:46:39;11.63;103.72
66506;HTU21D;53332;51.082;5.832;2024-01-30T14:49:05;11.62;109.17
66506;HTU21D;53332;51.082;5.832;2024-01-30T14:51:31;11.53;107.81
66506;HTU21D;53332;51.082;5.832;2024-01-30T14:53:59;11.48;106.72
66506;HTU21D;53332;51.082;5.832;2024-01-30T14:56:26;11.52;109.16
66506;HTU21D;53332;51.082;5.832;2024-01-30T14:58:52;11.46;108.18
66506;HTU21D;53332;51.082;5.832;2024-01-30T15:01:17;11.43;106.97
66506;HTU21D;53332;51.082;5.832;2024-01-30T15:03:44;11.46;107.89